Time;durP1;ratioP1;P1;durP2;ratioP2;P2;SDS_P1;SDS_P2;PMS_P1;PMS_P2;Temp;Humidity;BMP_temperature;BMP_pressure;BME280_temperature;BME280_humidity;BME280_pressure;Samples;Min_cycle;Max_cycle;Signal;HPM_P1;HPM_P2
2023/05/17 00:01:43;;;;;;;25.08;22.98;;;;;;;14.38;68.29;100276.31;4969558;28;98108;-74
2023/05/17 00:04:09;;;;;;;26.58;24.35;;;;;;;14.36;67.93;100279.94;4953725;28;97870;-73
2023/05/17 00:06:34;;;;;;;25.05;22.83;;;;;;;14.41;67.50;100285.88;4952204;28;97237;-74
2023/05/17 00:09:00;;;;;;;24.55;22.33;;;;;;;14.41;67.34;100286.72;4971791;28;97549;-74
2023/05/17 00:11:25;;;;;;;24.50;22.38;;;;;;;14.36;67.73;100286.09;4970635;28;101347;-73
2023/05/17 00:13:51;;;;;;;24.55;22.20;;;;;;;14.13;68.44;100265.25;4953136;28;101437;-74
2023/05/17 00:16:16;;;;;;;23.00;20.85;;;;;;;14.11;68.22;100269.75;4954001;28;96904;-74
2023/05/17 00:18:42;;;;;;;23.98;21.98;;;;;;;14.30;67.90;100286.41;4956387;28;97364;-74
2023/05/17 00:21:07;;;;;;;23.50;21.52;;;;;;;14.29;68.23;100282.06;4970330;28;101250;-74
2023/05/17 00:23:33;;;;;;;24.73;22.63;;;;;;;14.13;67.81;100265.25;4953668;28;97558;-74
2023/05/17 00:25:58;;;;;;;24.17;21.83;;;;;;;14.21;68.24;100279.78;4969243;28;96832;-74
2023/05/17 00:28:24;;;;;;;23.40;21.23;;;;;;;14.22;68.26;100278.00;4970424;28;96855;-74
2023/05/17 00:30:50;;;;;;;23.02;21.13;;;;;;;14.19;68.25;100279.00;4953530;28;98219;-73
2023/05/17 00:33:15;;;;;;;25.35;22.48;;;;;;;14.21;68.41;100277.16;4969532;28;101088;-73
2023/05/17 00:35:41;;;;;;;23.50;21.60;;;;;;;14.25;67.99;100288.41;4950119;28;97644;-74
2023/05/17 00:38:06;;;;;;;23.33;21.00;;;;;;;14.22;68.26;100285.91;4953294;28;96942;-74
2023/05/17 00:40:32;;;;;;;23.50;21.65;;;;;;;14.23;67.99;100287.63;4951996;28;101134;-74
2023/05/17 00:42:58;;;;;;;23.15;21.23;;;;;;;14.24;68.22;100287.56;4945078;28;97985;-74
2023/05/17 00:45:23;;;;;;;26.33;23.67;;;;;;;14.23;68.22;100283.22;4968485;28;96912;-74
2023/05/17 00:47:49;;;;;;;24.42;22.40;;;;;;;14.23;67.90;100280.56;4953800;28;98741;-74
2023/05/17 00:50:14;;;;;;;25.08;22.98;;;;;;;14.22;68.25;100286.78;4949966;28;97532;-74
2023/05/17 00:52:40;;;;;;;26.02;23.35;;;;;;;14.02;68.34;100255.22;4937475;28;101528;-74
2023/05/17 00:55:06;;;;;;;24.15;22.17;;;;;;;14.14;68.31;100275.75;4952695;28;97278;-74
2023/05/17 00:57:31;;;;;;;24.10;22.10;;;;;;;14.11;68.71;100272.38;4970295;28;96877;-73
2023/05/17 00:59:59;;;;;;;25.00;22.95;;;;;;;14.12;68.58;100279.41;4952861;28;98272;-76
2023/05/17 01:02:25;;;;;;;24.67;22.45;;;;;;;14.14;68.44;100274.91;4971277;28;97688;-74
2023/05/17 01:04:51;;;;;;;25.40;23.08;;;;;;;14.09;68.16;100280.41;4968484;28;97353;-74
2023/05/17 01:07:16;;;;;;;24.20;22.30;;;;;;;14.09;68.59;100287.47;4970485;28;96994;-74
2023/05/17 01:09:45;;;;;;;24.67;22.48;;;;;;;14.04;68.91;100277.97;4968759;28;98110;-74
2023/05/17 01:12:21;;;;;;;25.25;23.00;;;;;;;14.04;68.70;100277.13;4937200;28;101219;-74
2023/05/17 01:14:55;;;;;;;25.02;23.02;;;;;;;13.99;68.48;100265.94;4935032;28;97076;-74
2023/05/17 01:17:31;;;;;;;24.48;22.52;;;;;;;13.79;68.44;100246.66;4970667;28;97274;-74
2023/05/17 01:20:20;;;;;;;24.77;22.30;;;;;;;13.87;68.52;100256.81;4951948;28;101318;-73
2023/05/17 01:23:10;;;;;;;25.25;22.70;;;;;;;14.02;68.34;100286.88;4950141;28;101267;-74
2023/05/17 01:25:47;;;;;;;25.48;23.35;;;;;;;13.98;68.37;100282.69;4953086;28;98097;-74
2023/05/17 01:28:13;;;;;;;23.70;21.80;;;;;;;13.90;67.88;100267.22;4970886;28;96738;-74
2023/05/17 01:30:40;;;;;;;24.70;22.52;;;;;;;13.84;68.55;100261.41;4969106;28;97913;-74
2023/05/17 01:33:08;;;;;;;24.67;22.48;;;;;;;13.96;68.27;100284.56;4952681;28;101261;-74
2023/05/17 01:35:34;;;;;;;23.23;21.13;;;;;;;13.88;68.34;100289.38;4952103;28;97099;-73
2023/05/17 01:37:59;;;;;;;23.50;21.48;;;;;;;13.88;68.38;100284.09;4969011;28;97606;-74
2023/05/17 01:40:25;;;;;;;23.50;21.65;;;;;;;13.87;68.23;100288.50;4935457;28;101458;-74
2023/05/17 01:42:56;;;;;;;21.77;19.88;;;;;;;13.88;68.19;100284.94;4951688;28;101254;-74
2023/05/17 01:45:40;;;;;;;23.10;21.02;;;;;;;13.88;68.25;100299.94;4968932;28;96822;-74
2023/05/17 01:48:20;;;;;;;22.63;20.65;;;;;;;13.87;68.44;100301.69;4953306;28;97278;-73
2023/05/17 01:50:49;;;;;;;22.13;20.33;;;;;;;13.87;68.17;100299.03;4935972;28;101121;-74
2023/05/17 01:53:27;;;;;;;22.83;20.73;;;;;;;13.87;68.24;100300.84;4936079;28;97906;-74
2023/05/17 01:55:56;;;;;;;21.98;20.33;;;;;;;13.68;68.60;100267.44;4953769;28;96752;-74
2023/05/17 01:58:24;;;;;;;22.30;20.30;;;;;;;13.67;68.44;100265.72;4917169;28;96887;-74
2023/05/17 02:00:54;;;;;;;22.65;20.40;;;;;;;13.81;68.34;100291.44;4927282;28;101868;-76
2023/05/17 02:03:20;;;;;;;23.50;21.30;;;;;;;13.77;68.44;100293.38;4935400;28;97933;-74
2023/05/17 02:05:49;;;;;;;21.77;19.70;;;;;;;13.76;68.37;100296.94;4920294;28;98019;-74
2023/05/17 02:08:15;;;;;;;21.33;19.63;;;;;;;13.77;68.52;100311.81;4936697;28;97569;-74
2023/05/17 02:10:40;;;;;;;23.75;21.88;;;;;;;13.63;68.08;100285.25;4936265;28;101773;-73
2023/05/17 02:13:06;;;;;;;22.38;20.40;;;;;;;13.61;68.55;100284.44;4935025;28;101997;-74
2023/05/17 02:15:31;;;;;;;23.38;21.38;;;;;;;13.73;68.61;100307.63;4935830;28;97123;-73
2023/05/17 02:17:58;;;;;;;21.63;19.73;;;;;;;13.74;68.20;100317.25;4952251;28;97270;-73
2023/05/17 02:20:23;;;;;;;22.20;20.25;;;;;;;13.74;68.57;100309.34;4952028;28;98037;-74
2023/05/17 02:22:50;;;;;;;22.40;20.15;;;;;;;13.75;68.53;100304.91;4935525;28;101055;-74
2023/05/17 02:25:17;;;;;;;21.42;19.52;;;;;;;13.59;68.50;100286.31;4952029;28;97343;-74
2023/05/17 02:27:43;;;;;;;22.52;20.42;;;;;;;13.70;68.62;100312.19;4952690;28;97398;-74
2023/05/17 02:30:08;;;;;;;23.00;20.85;;;;;;;13.71;67.97;100303.34;4934437;28;100915;-74
2023/05/17 02:32:34;;;;;;;21.75;19.83;;;;;;;13.64;68.16;100304.56;4935488;28;101283;-74
2023/05/17 02:35:00;;;;;;;22.27;20.08;;;;;;;13.65;68.30;100304.50;4918484;28;96729;-74
2023/05/17 02:37:25;;;;;;;22.50;20.55;;;;;;;13.31;67.78;100266.50;4936132;28;97135;-74
2023/05/17 02:39:51;;;;;;;20.77;19.20;;;;;;;13.55;68.24;100308.47;4935011;28;97895;-74
2023/05/17 02:42:16;;;;;;;21.70;19.80;;;;;;;13.51;68.46;100302.50;4919379;28;101081;-74
2023/05/17 02:44:42;;;;;;;20.88;18.60;;;;;;;13.46;68.14;100293.09;4935248;28;97230;-74
2023/05/17 02:47:08;;;;;;;20.55;18.45;;;;;;;13.46;67.89;100301.00;4966942;28;97129;-74
2023/05/17 02:49:34;;;;;;;20.75;19.02;;;;;;;13.45;67.97;100313.34;4954702;28;101433;-74
2023/05/17 02:51:59;;;;;;;21.23;19.27;;;;;;;13.10;68.42;100310.47;4954373;28;101612;-74
2023/05/17 02:54:25;;;;;;;19.77;18.02;;;;;;;13.36;68.21;100316.41;4953607;28;97191;-74
2023/05/17 02:56:51;;;;;;;22.38;20.58;;;;;;;13.39;67.61;100320.69;4938052;28;97410;-74
2023/05/17 02:59:17;;;;;;;21.67;19.63;;;;;;;13.39;67.86;100318.88;4954703;28;101143;-74
2023/05/17 03:01:42;;;;;;;20.08;18.30;;;;;;;13.32;67.34;100325.34;4938382;28;101049;-74
2023/05/17 03:04:09;;;;;;;21.00;19.25;;;;;;;13.36;67.15;100330.44;4970001;28;97014;-74
2023/05/17 03:06:34;;;;;;;20.90;18.98;;;;;;;13.34;66.93;100332.28;4953829;28;97746;-74
2023/05/17 03:09:01;;;;;;;20.60;18.50;;;;;;;13.39;66.79;100344.41;4953817;28;100954;-74
2023/05/17 03:11:26;;;;;;;20.13;18.42;;;;;;;13.31;67.31;100340.31;4955175;28;98397;-74
2023/05/17 03:13:54;;;;;;;19.30;17.35;;;;;;;13.23;66.76;100342.41;4953774;28;96791;-76
2023/05/17 03:16:24;;;;;;;19.25;17.70;;;;;;;13.26;66.61;100352.00;4952095;28;96776;-74
2023/05/17 03:18:51;;;;;;;20.63;18.50;;;;;;;13.32;66.39;100355.22;4937686;28;99971;-74
2023/05/17 03:21:16;;;;;;;20.10;18.15;;;;;;;13.30;66.73;100364.97;4951371;28;101751;-74
2023/05/17 03:23:42;;;;;;;20.25;18.17;;;;;;;13.30;66.41;100361.50;4935139;28;96884;-74
2023/05/17 03:26:07;;;;;;;20.30;18.67;;;;;;;13.27;66.57;100370.38;4951035;28;97459;-74
2023/05/17 03:28:39;;;;;;;19.70;17.88;;;;;;;13.21;66.48;100370.63;4954887;28;101398;-74
2023/05/17 03:31:05;;;;;;;20.58;17.63;;;;;;;13.25;66.40;100376.63;4970230;28;101574;-74
2023/05/17 03:33:32;;;;;;;19.27;17.70;;;;;;;13.24;65.97;100372.28;4956375;28;97057;-74
2023/05/17 03:35:58;;;;;;;19.67;17.75;;;;;;;13.12;65.54;100348.16;4938021;28;97048;-74
2023/05/17 03:38:24;;;;;;;20.02;18.23;;;;;;;13.16;66.15;100377.88;4953823;28;101469;-74
2023/05/17 03:40:51;;;;;;;18.88;17.35;;;;;;;13.15;65.67;100370.91;4936908;28;101168;-74
2023/05/17 03:43:17;;;;;;;19.38;17.63;;;;;;;13.19;65.51;100374.25;4945674;28;96850;-74
2023/05/17 03:45:42;;;;;;;17.75;16.30;;;;;;;13.21;64.96;100370.63;4970310;28;97046;-74
2023/05/17 03:48:08;;;;;;;19.10;16.85;;;;;;;13.20;65.57;100389.13;4957723;28;101732;-74
2023/05/17 03:50:34;;;;;;;18.88;16.98;;;;;;;13.26;65.09;100394.16;4953778;28;101081;-74
2023/05/17 03:52:59;;;;;;;19.85;17.90;;;;;;;13.25;65.11;100388.03;4953188;28;97115;-74
2023/05/17 03:55:25;;;;;;;19.08;17.20;;;;;;;13.04;65.42;100384.53;4953934;28;97022;-73
2023/05/17 03:57:51;;;;;;;18.38;16.60;;;;;;;13.13;65.06;100383.28;4955020;28;101339;-74
2023/05/17 04:00:20;;;;;;;20.90;19.05;;;;;;;13.22;64.98;100389.94;4949143;28;101783;-74
2023/05/17 04:02:50;;;;;;;18.98;16.90;;;;;;;12.91;65.18;100370.16;4963757;28;97754;-74
2023/05/17 04:05:18;;;;;;;18.42;16.63;;;;;;;13.01;65.32;100397.84;4950344;28;96968;-74
2023/05/17 04:07:45;;;;;;;20.20;17.95;;;;;;;13.07;65.23;100407.28;4929743;28;100834;-74
2023/05/17 04:10:11;;;;;;;20.73;17.48;;;;;;;12.99;64.36;100381.25;4949250;28;101447;-74
2023/05/17 04:12:37;;;;;;;19.08;17.55;;;;;;;13.17;64.32;100397.19;4964793;28;96761;-74
2023/05/17 04:15:03;;;;;;;18.70;16.92;;;;;;;13.16;64.22;100398.97;4936512;28;97315;-74
2023/05/17 04:17:29;;;;;;;22.10;18.05;;;;;;;13.19;64.58;100408.53;4935617;28;99202;-73
2023/05/17 04:19:55;;;;;;;19.52;17.85;;;;;;;13.14;64.56;100406.91;4953025;28;101788;-74
2023/05/17 04:22:20;;;;;;;20.08;18.15;;;;;;;13.22;64.13;100411.03;4932503;28;97334;-74
2023/05/17 04:24:46;;;;;;;19.08;17.25;;;;;;;13.30;63.53;100409.78;4936988;28;97236;-74
2023/05/17 04:27:13;;;;;;;20.17;18.20;;;;;;;13.27;64.03;100412.56;4947336;28;100687;-73
2023/05/17 04:29:39;;;;;;;18.40;17.02;;;;;;;13.36;63.42;100421.84;4966016;28;97426;-74
2023/05/17 04:32:06;;;;;;;18.67;16.88;;;;;;;13.45;63.41;100425.88;4950652;28;97806;-74
2023/05/17 04:34:32;;;;;;;20.30;18.20;;;;;;;13.31;63.26;100427.31;4952565;28;97140;-74
2023/05/17 04:36:59;;;;;;;17.88;16.40;;;;;;;13.43;63.20;100425.91;4935573;28;100763;-74
2023/05/17 04:39:26;;;;;;;19.35;17.15;;;;;;;13.51;62.69;100431.72;4937130;28;101716;-74
2023/05/17 04:41:52;;;;;;;19.63;17.92;;;;;;;13.50;62.82;100432.66;4966351;28;96888;-74
2023/05/17 04:44:18;;;;;;;17.45;15.63;;;;;;;13.33;62.75;100438.66;4948835;28;96925;-74
2023/05/17 04:46:44;;;;;;;17.30;15.70;;;;;;;13.47;62.46;100439.84;4931304;28;100877;-74
2023/05/17 04:49:11;;;;;;;18.73;17.33;;;;;;;13.54;62.32;100454.47;4955470;28;101422;-74
2023/05/17 04:51:37;;;;;;;19.52;17.45;;;;;;;13.56;62.32;100456.13;4951995;28;98485;-74
2023/05/17 04:54:07;;;;;;;16.15;14.88;;;;;;;13.67;62.45;100452.13;4927606;28;97496;-74
2023/05/17 04:56:34;;;;;;;20.75;16.92;;;;;;;13.75;62.10;100445.59;4949842;28;100515;-74
2023/05/17 04:59:04;;;;;;;16.85;15.35;;;;;;;13.84;61.43;100446.09;4952082;28;101614;-74
2023/05/17 05:01:30;;;;;;;18.27;16.40;;;;;;;13.96;60.79;100438.50;4953215;28;97256;-78
2023/05/17 05:03:58;;;;;;;17.15;15.52;;;;;;;14.07;60.84;100437.97;4950055;28;97537;-77
2023/05/17 05:06:23;;;;;;;16.63;15.00;;;;;;;14.14;61.01;100439.41;4932454;28;101502;-76
2023/05/17 05:08:49;;;;;;;16.67;15.30;;;;;;;14.24;60.19;100434.53;4933937;28;101271;-76
2023/05/17 05:11:15;;;;;;;16.10;14.57;;;;;;;14.43;60.00;100440.66;4948683;28;96940;-76
2023/05/17 05:13:41;;;;;;;17.63;16.25;;;;;;;14.38;59.94;100416.25;4936005;28;97697;-77
2023/05/17 05:16:07;;;;;;;18.50;16.60;;;;;;;14.99;58.71;100445.91;4949535;28;101610;-76
2023/05/17 05:18:33;;;;;;;16.40;14.80;;;;;;;15.46;57.43;100447.91;4931332;28;101487;-76
2023/05/17 05:20:59;;;;;;;16.70;15.25;;;;;;;15.94;56.22;100440.94;4935166;28;96788;-76
2023/05/17 05:23:25;;;;;;;18.67;16.08;;;;;;;16.03;55.82;100453.72;4954509;28;97486;-77
2023/05/17 05:25:51;;;;;;;15.73;14.07;;;;;;;16.15;55.02;100455.69;4939435;28;101198;-77
2023/05/17 05:28:17;;;;;;;17.15;15.57;;;;;;;16.23;54.95;100457.91;4936034;28;101515;-76
2023/05/17 05:30:43;;;;;;;16.13;14.68;;;;;;;16.31;54.43;100458.31;4956232;28;97383;-76
2023/05/17 05:33:10;;;;;;;15.75;14.15;;;;;;;16.49;53.86;100448.50;4936350;28;97053;-77
2023/05/17 05:35:37;;;;;;;16.27;15.00;;;;;;;16.82;53.15;100448.41;4951951;28;101579;-74
2023/05/17 05:38:02;;;;;;;16.98;15.38;;;;;;;17.46;52.05;100448.19;4956707;28;101755;-73
2023/05/17 05:40:28;;;;;;;15.57;14.27;;;;;;;18.43;49.56;100467.78;4943741;28;96877;-73
2023/05/17 05:42:55;;;;;;;17.50;15.90;;;;;;;19.10;47.36;100467.84;4939504;28;97105;-73
2023/05/17 05:45:20;;;;;;;16.05;14.70;;;;;;;19.13;47.00;100467.63;4954010;28;101584;-74
2023/05/17 05:47:47;;;;;;;16.10;13.88;;;;;;;19.00;46.92;100470.25;4941050;28;101292;-75
2023/05/17 05:50:13;;;;;;;16.38;14.75;;;;;;;18.94;46.46;100470.69;4911026;28;97673;-75
2023/05/17 05:52:40;;;;;;;14.50;13.27;;;;;;;18.80;46.50;100483.19;4911320;28;96938;-75
2023/05/17 05:55:06;;;;;;;15.75;14.15;;;;;;;18.56;46.45;100478.50;4911232;28;101374;-75
2023/05/17 05:57:32;;;;;;;15.93;14.63;;;;;;;18.67;46.62;100489.25;4929291;28;101358;-75
2023/05/17 05:59:58;;;;;;;15.77;14.43;;;;;;;19.00;45.74;100486.22;4943790;28;97347;-75
2023/05/17 06:02:25;;;;;;;17.17;15.50;;;;;;;18.55;46.29;100493.56;4931879;28;97511;-76
2023/05/17 06:04:50;;;;;;;15.93;14.30;;;;;;;18.91;45.90;100486.00;4924156;28;101208;-76
2023/05/17 06:07:16;;;;;;;16.10;14.57;;;;;;;19.25;45.06;100499.69;4921939;28;98084;-75
2023/05/17 06:09:42;;;;;;;16.50;14.88;;;;;;;19.20;45.62;100492.03;4928498;28;97403;-77
2023/05/17 06:12:07;;;;;;;16.83;15.07;;;;;;;19.05;46.01;100501.88;4910671;28;97313;-77
2023/05/17 06:14:33;;;;;;;16.52;14.93;;;;;;;18.92;45.73;100477.06;4926607;28;101748;-76
2023/05/17 06:16:58;;;;;;;16.10;14.40;;;;;;;18.65;46.22;100504.47;4942025;28;101399;-74
2023/05/17 06:19:24;;;;;;;15.77;14.20;;;;;;;18.45;46.13;100511.06;4928401;28;98572;-74
2023/05/17 06:21:50;;;;;;;16.25;14.65;;;;;;;18.33;46.19;100506.53;4948316;28;97458;-77
2023/05/17 06:24:15;;;;;;;17.13;15.38;;;;;;;18.30;46.20;100496.94;4929038;28;98038;-75
2023/05/17 06:26:42;;;;;;;18.45;16.25;;;;;;;18.49;45.82;100488.63;4928296;28;97443;-75
2023/05/17 06:29:09;;;;;;;15.50;13.95;;;;;;;18.33;45.92;100501.22;4927176;28;97309;-75
2023/05/17 06:31:34;;;;;;;21.38;15.27;;;;;;;17.90;46.32;100500.41;4946280;28;97119;-75
2023/05/17 06:34:00;;;;;;;16.50;14.02;;;;;;;17.32;47.11;100504.72;4927550;28;101436;-75
2023/05/17 06:36:25;;;;;;;19.80;14.02;;;;;;;17.73;46.64;100498.72;4943931;28;97500;-75
2023/05/17 06:38:51;;;;;;;17.35;15.40;;;;;;;18.02;46.60;100510.25;4942668;28;97439;-76
2023/05/17 06:41:16;;;;;;;16.77;15.13;;;;;;;18.18;46.23;100520.75;4924848;28;97963;-74
2023/05/17 06:43:42;;;;;;;15.68;13.77;;;;;;;18.05;46.11;100502.94;4929496;28;101264;-74
2023/05/17 06:46:07;;;;;;;17.80;15.13;;;;;;;17.67;47.50;100536.28;4946132;28;97443;-77
2023/05/17 06:48:33;;;;;;;18.30;14.40;;;;;;;17.80;46.97;100537.25;4954668;28;97409;-76
2023/05/17 06:50:58;;;;;;;14.57;13.05;;;;;;;17.69;47.52;100539.69;4934508;28;97553;-75
2023/05/17 06:53:26;;;;;;;23.05;14.82;;;;;;;17.46;47.76;100546.38;4943527;28;97602;-75
2023/05/17 06:55:51;;;;;;;16.10;14.52;;;;;;;17.11;49.75;100546.63;4953263;28;97491;-74
2023/05/17 06:58:17;;;;;;;18.17;14.85;;;;;;;16.91;49.34;100547.78;4967948;28;97376;-74
2023/05/17 07:00:42;;;;;;;17.30;14.63;;;;;;;16.78;48.90;100554.69;4951326;28;97436;-74
2023/05/17 07:03:08;;;;;;;19.48;16.20;;;;;;;16.56;49.79;100539.97;4984392;28;98771;-74
2023/05/17 07:05:34;;;;;;;19.40;16.02;;;;;;;16.47;50.01;100559.03;4956900;28;101061;-73
2023/05/17 07:08:00;;;;;;;17.95;15.95;;;;;;;16.29;50.50;100561.72;4991163;28;96728;-73
2023/05/17 07:10:26;;;;;;;18.15;15.32;;;;;;;16.23;51.07;100561.19;4973834;28;97411;-74
2023/05/17 07:12:51;;;;;;;21.17;16.35;;;;;;;15.99;51.30;100558.91;4957068;28;101774;-73
2023/05/17 07:15:17;;;;;;;17.42;15.80;;;;;;;16.00;51.16;100554.50;4957361;28;98645;-73
2023/05/17 07:17:43;;;;;;;21.30;15.52;;;;;;;15.89;51.41;100565.63;4965373;28;97216;-72
2023/05/17 07:20:09;;;;;;;20.92;15.23;;;;;;;15.86;51.31;100555.22;4946252;28;97121;-72
2023/05/17 07:22:36;;;;;;;20.67;17.58;;;;;;;15.62;52.02;100544.94;4960501;28;97494;-72
2023/05/17 07:25:01;;;;;;;22.83;17.50;;;;;;;15.84;51.81;100565.00;4955833;28;98320;-73
2023/05/17 07:27:27;;;;;;;23.42;14.85;;;;;;;15.73;51.85;100552.31;4954424;28;97725;-72
2023/05/17 07:29:53;;;;;;;21.42;17.05;;;;;;;15.85;51.92;100572.00;4960952;28;98029;-73
2023/05/17 07:32:18;;;;;;;18.63;16.63;;;;;;;15.86;52.51;100563.16;4939111;28;101133;-73
2023/05/17 07:34:44;;;;;;;19.42;16.65;;;;;;;15.69;52.85;100564.00;4974333;28;97626;-74
2023/05/17 07:37:10;;;;;;;22.73;16.55;;;;;;;15.81;52.92;100571.31;4973306;28;96837;-74
2023/05/17 07:39:35;;;;;;;21.83;16.25;;;;;;;15.83;52.59;100582.69;4958667;28;97872;-72
2023/05/17 07:42:01;;;;;;;26.92;18.13;;;;;;;15.83;52.91;100584.50;4954788;28;101250;-73
2023/05/17 07:44:26;;;;;;;20.17;16.95;;;;;;;15.84;51.83;100586.19;4969109;28;97429;-73
2023/05/17 07:46:52;;;;;;;18.83;15.63;;;;;;;15.74;52.54;100571.72;4989972;28;97213;-72
2023/05/17 07:49:18;;;;;;;20.75;16.55;;;;;;;15.75;52.40;100568.13;4936867;28;97723;-74
2023/05/17 07:51:43;;;;;;;19.60;17.52;;;;;;;15.92;52.68;100584.00;4989270;28;97403;-72
2023/05/17 07:54:11;;;;;;;23.50;17.10;;;;;;;15.80;52.82;100598.72;4948463;28;98115;-74
2023/05/17 07:56:37;;;;;;;19.63;16.23;;;;;;;15.56;52.77;100599.94;4973982;28;97037;-72
2023/05/17 07:59:02;;;;;;;20.30;17.10;;;;;;;15.75;52.27;100595.47;4947288;28;97569;-73
2023/05/17 08:01:28;;;;;;;25.05;17.42;;;;;;;15.88;52.23;100602.75;4970244;28;98059;-72
2023/05/17 08:03:54;;;;;;;18.65;15.82;;;;;;;15.91;52.69;100598.19;4962007;28;101359;-75
2023/05/17 08:06:19;;;;;;;16.65;14.27;;;;;;;15.93;52.06;100591.00;4937043;28;96877;-73
2023/05/17 08:08:45;;;;;;;21.45;16.38;;;;;;;15.97;52.44;100579.34;4970965;28;96995;-74
2023/05/17 08:11:11;;;;;;;20.88;15.77;;;;;;;15.86;52.70;100584.31;4967255;28;97563;-73
2023/05/17 08:13:37;;;;;;;31.42;17.35;;;;;;;16.01;52.15;100588.81;4954174;28;101507;-72
2023/05/17 08:16:06;;;;;;;19.58;15.80;;;;;;;16.06;51.90;100588.59;4960732;28;97902;-72
2023/05/17 08:18:32;;;;;;;18.08;15.63;;;;;;;15.92;52.36;100581.34;4951408;28;97220;-72
2023/05/17 08:20:58;;;;;;;22.85;14.90;;;;;;;16.02;51.24;100585.22;4950980;28;101077;-72
2023/05/17 08:23:23;;;;;;;19.70;15.70;;;;;;;15.90;52.03;100579.72;4950756;28;101121;-72
2023/05/17 08:25:49;;;;;;;17.45;15.45;;;;;;;16.04;50.57;100579.84;4950842;28;97220;-73
2023/05/17 08:28:15;;;;;;;18.40;16.52;;;;;;;16.03;50.97;100580.81;4951711;28;97819;-72
2023/05/17 08:30:40;;;;;;;36.53;15.90;;;;;;;16.15;51.29;100577.50;4968084;28;99543;-72
2023/05/17 08:33:10;;;;;;;19.65;15.15;;;;;;;16.16;51.05;100581.84;4962774;28;97436;-74
2023/05/17 08:35:36;;;;;;;27.38;16.52;;;;;;;16.16;51.12;100589.78;4951809;28;97357;-74
2023/05/17 08:38:02;;;;;;;27.30;16.05;;;;;;;16.21;51.14;100592.22;4944612;28;97397;-75
2023/05/17 08:40:27;;;;;;;17.17;15.18;;;;;;;16.23;51.34;100590.31;4949005;28;101248;-74
2023/05/17 08:42:53;;;;;;;20.02;15.88;;;;;;;16.27;51.34;100582.13;4950566;28;100870;-74
2023/05/17 08:45:19;;;;;;;22.98;15.88;;;;;;;16.11;51.39;100561.84;4958118;28;97160;-74
2023/05/17 08:47:47;;;;;;;21.95;15.43;;;;;;;16.03;51.63;100594.03;4935880;28;97647;-74
2023/05/17 08:50:13;;;;;;;19.05;15.20;;;;;;;16.12;51.46;100584.75;4952148;28;101763;-74
2023/05/17 08:52:40;;;;;;;20.02;15.40;;;;;;;16.27;51.19;100583.94;4952973;28;97834;-73
2023/05/17 08:55:07;;;;;;;19.88;15.57;;;;;;;16.19;51.54;100589.63;4962905;28;97441;-74
2023/05/17 08:57:37;;;;;;;20.85;15.45;;;;;;;16.40;50.75;100584.97;4952157;28;99124;-74
2023/05/17 09:00:08;;;;;;;25.30;16.30;;;;;;;16.50;50.01;100593.31;4964294;28;97693;-73
2023/05/17 09:02:33;;;;;;;18.75;15.10;;;;;;;15.98;50.68;100580.19;4954549;28;97982;-73
2023/05/17 09:04:59;;;;;;;25.95;15.65;;;;;;;16.46;50.12;100587.31;4947852;28;97894;-74
2023/05/17 09:07:25;;;;;;;18.23;16.05;;;;;;;16.50;50.08;100582.69;4965395;28;97900;-73
2023/05/17 09:09:53;;;;;;;21.60;15.65;;;;;;;16.53;49.57;100580.72;4947767;28;101244;-73
2023/05/17 09:12:20;;;;;;;24.63;15.48;;;;;;;16.43;49.96;100592.75;4980682;28;97572;-74
2023/05/17 09:14:46;;;;;;;18.88;15.27;;;;;;;16.72;48.95;100567.31;4943460;28;97027;-74
2023/05/17 09:17:20;;;;;;;19.35;14.82;;;;;;;16.92;48.56;100574.19;4945177;28;97213;-74
2023/05/17 09:19:47;;;;;;;23.15;15.82;;;;;;;16.93;48.07;100575.06;4933260;28;101683;-74
2023/05/17 09:22:19;;;;;;;17.73;15.27;;;;;;;17.16;48.40;100601.13;4951179;28;101066;-74
2023/05/17 09:24:45;;;;;;;23.05;15.63;;;;;;;17.05;47.76;100589.41;4965346;28;97173;-73
2023/05/17 09:27:16;;;;;;;17.52;15.82;;;;;;;17.30;47.14;100602.13;4961190;28;97630;-74
2023/05/17 09:29:44;;;;;;;19.98;16.92;;;;;;;17.31;47.66;100601.19;4977083;28;101251;-73
2023/05/17 09:32:13;;;;;;;22.23;15.70;;;;;;;17.35;47.24;100602.72;4946443;28;97433;-73
2023/05/17 09:34:40;;;;;;;19.58;15.52;;;;;;;17.39;47.80;100597.16;4945356;28;97542;-74
2023/05/17 09:37:12;;;;;;;25.98;16.15;;;;;;;17.41;48.16;100602.34;4962020;28;97211;-74
2023/05/17 09:39:37;;;;;;;17.17;15.38;;;;;;;17.53;47.06;100600.78;4946566;28;100651;-74
2023/05/17 09:42:03;;;;;;;19.75;16.25;;;;;;;17.48;47.49;100584.28;4937518;28;101064;-75
2023/05/17 09:44:28;;;;;;;32.10;15.52;;;;;;;17.51;47.31;100610.63;4943352;28;97164;-74
2023/05/17 09:46:56;;;;;;;21.10;14.32;;;;;;;17.54;46.90;100598.06;4950920;28;97015;-75
2023/05/17 09:49:25;;;;;;;15.65;13.98;;;;;;;17.53;46.76;100595.47;4960181;28;98509;-76
2023/05/17 09:51:51;;;;;;;19.52;14.93;;;;;;;17.42;46.84;100593.44;4981535;28;97430;-74
2023/05/17 09:54:17;;;;;;;24.10;15.65;;;;;;;17.28;46.94;100593.38;4959989;28;97149;-74
2023/05/17 09:56:43;;;;;;;21.02;15.18;;;;;;;17.20;47.49;100601.81;4949938;28;97941;-74
2023/05/17 09:59:13;;;;;;;21.67;15.32;;;;;;;17.20;47.33;100586.72;4961890;28;98037;-74
2023/05/17 10:01:46;;;;;;;22.85;16.48;;;;;;;17.28;47.84;100604.00;4985287;28;97874;-74
2023/05/17 10:04:12;;;;;;;16.77;15.00;;;;;;;17.26;47.30;100590.84;4942979;28;97444;-74
2023/05/17 10:06:43;;;;;;;23.65;14.70;;;;;;;17.37;47.15;100608.78;4951736;28;97566;-74
2023/05/17 10:09:12;;;;;;;17.63;14.90;;;;;;;17.30;47.03;100596.81;4953059;28;100859;-74
2023/05/17 10:11:39;;;;;;;17.02;15.23;;;;;;;17.23;46.69;100595.47;4945645;28;101752;-74
2023/05/17 10:14:17;;;;;;;15.52;13.93;;;;;;;17.37;46.38;100611.44;4947994;28;97282;-74
2023/05/17 10:16:44;;;;;;;22.45;16.23;;;;;;;17.29;46.02;100592.47;4932233;28;97169;-74
2023/05/17 10:19:13;;;;;;;18.05;15.88;;;;;;;17.36;46.17;100615.03;4965016;28;97522;-74
2023/05/17 10:21:39;;;;;;;17.95;13.77;;;;;;;17.38;46.33;100615.81;4964205;28;97511;-73
2023/05/17 10:24:05;;;;;;;16.67;15.05;;;;;;;17.28;46.74;100615.50;4966962;28;97249;-74
2023/05/17 10:26:31;;;;;;;15.40;13.80;;;;;;;17.17;47.03;100620.53;4971207;28;97646;-74
2023/05/17 10:29:01;;;;;;;16.65;14.35;;;;;;;17.13;47.06;100625.19;4931364;28;101022;-74
2023/05/17 10:31:35;;;;;;;18.73;15.00;;;;;;;17.10;46.77;100600.59;4952836;28;101219;-74
2023/05/17 10:34:01;;;;;;;23.10;14.70;;;;;;;17.19;46.81;100613.34;4945428;28;97244;-74
2023/05/17 10:36:27;;;;;;;16.88;14.20;;;;;;;17.19;47.40;100631.91;4949197;28;97270;-74
2023/05/17 10:38:54;;;;;;;17.65;14.15;;;;;;;17.00;46.92;100596.78;4943886;28;98215;-74
2023/05/17 10:41:22;;;;;;;16.80;14.60;;;;;;;17.19;47.27;100630.13;4937217;28;101006;-73
2023/05/17 10:43:49;;;;;;;24.30;15.05;;;;;;;17.13;47.20;100611.03;4958952;28;97207;-74
2023/05/17 10:46:15;;;;;;;17.95;15.93;;;;;;;17.20;47.80;100633.63;4950966;28;98873;-73
2023/05/17 10:48:41;;;;;;;17.38;14.18;;;;;;;17.14;48.08;100626.03;4951928;28;101501;-73
2023/05/17 10:51:08;;;;;;;22.13;14.88;;;;;;;17.02;47.73;100603.69;4935404;28;101844;-77
2023/05/17 10:54:02;;;;;;;14.98;13.63;;;;;;;17.08;47.70;100624.56;4948801;28;98451;-77
2023/05/17 10:56:32;;;;;;;18.33;14.57;;;;;;;17.02;47.66;100616.97;4943109;28;97251;-75
2023/05/17 10:59:26;;;;;;;17.10;15.07;;;;;;;17.04;47.79;100630.13;4945802;28;100806;-77
2023/05/17 11:02:02;;;;;;;19.13;13.55;;;;;;;16.93;48.81;100628.09;4958009;28;101469;-83
2023/05/17 11:04:31;;;;;;;15.60;14.15;;;;;;;16.93;48.85;100620.97;4971226;28;96844;-82
2023/05/17 11:07:19;;;;;;;23.10;14.75;;;;;;;16.96;49.45;100623.47;4971523;28;97406;-78